Time;durP1;ratioP1;P1;durP2;ratioP2;P2;SDS_P1;SDS_P2;PMS_P1;PMS_P2;Temp;Humidity;BMP_temperature;BMP_pressure;BME280_temperature;BME280_humidity;BME280_pressure;Samples;Min_cycle;Max_cycle;Signal;HPM_P1;HPM_P2
2021/03/12 00:01:25;;;;;;;4.28;2.10;;;;;;;6.45;88.96;99046.81;4971553;28;20043;-53
2021/03/12 00:03:51;;;;;;;4.00;1.80;;;;;;;6.51;88.69;99039.25;4970477;28;20066;-46
2021/03/12 00:06:18;;;;;;;5.00;1.80;;;;;;;6.50;88.47;99053.66;4970835;28;20509;-49
2021/03/12 00:08:47;;;;;;;5.63;2.00;;;;;;;6.52;88.57;99057.09;4971447;28;20404;-53
2021/03/12 00:11:14;;;;;;;3.92;2.40;;;;;;;6.56;87.56;99061.41;4963909;28;20481;-49
2021/03/12 00:13:40;;;;;;;5.78;1.70;;;;;;;6.56;88.03;99048.69;4970561;28;20051;-54
2021/03/12 00:16:08;;;;;;;3.53;1.98;;;;;;;6.55;87.97;99059.66;4970064;28;20050;-54
2021/03/12 00:18:41;;;;;;;4.57;1.80;;;;;;;6.63;87.46;99059.81;4969926;28;20408;-52
2021/03/12 00:21:09;;;;;;;3.40;1.90;;;;;;;6.60;87.18;99069.91;4968886;28;20062;-53
2021/03/12 00:23:36;;;;;;;5.57;1.98;;;;;;;6.60;86.96;99068.22;4969774;28;20145;-50
2021/03/12 00:26:04;;;;;;;2.88;1.88;;;;;;;6.58;86.89;99071.59;4969366;28;20054;-54
2021/03/12 00:28:31;;;;;;;6.70;1.50;;;;;;;6.57;86.62;99064.81;4970322;28;20054;-52
2021/03/12 00:30:58;;;;;;;4.93;1.40;;;;;;;6.64;86.83;99071.69;4969078;28;20474;-53
2021/03/12 00:33:27;;;;;;;2.67;1.70;;;;;;;6.56;86.78;99074.13;4969752;28;20061;-52
2021/03/12 00:35:54;;;;;;;5.43;1.90;;;;;;;6.53;86.93;99078.31;4969070;28;20051;-49
2021/03/12 00:38:20;;;;;;;3.42;1.50;;;;;;;6.63;86.12;99096.25;4969955;28;20115;-47
2021/03/12 00:40:55;;;;;;;4.95;1.42;;;;;;;6.62;85.52;99096.25;4970020;28;20496;-51
2021/03/12 00:43:22;;;;;;;4.15;1.80;;;;;;;6.51;86.02;99085.03;4964275;28;20065;-49
2021/03/12 00:45:54;;;;;;;5.35;1.58;;;;;;;6.54;86.19;99088.47;4969077;28;20047;-51
2021/03/12 00:48:21;;;;;;;6.13;1.10;;;;;;;6.40;86.51;99087.41;4969557;28;20158;-47
2021/03/12 00:50:48;;;;;;;3.25;1.67;;;;;;;6.34;86.67;99090.72;4969138;28;20134;-55
2021/03/12 00:53:15;;;;;;;4.35;1.83;;;;;;;6.37;86.52;99089.88;4969399;28;20046;-51
2021/03/12 00:55:42;;;;;;;5.78;1.70;;;;;;;6.19;86.66;99092.97;4968897;28;20133;-53
2021/03/12 00:58:09;;;;;;;2.30;1.40;;;;;;;6.11;87.37;99092.00;4969231;28;20056;-53
2021/03/12 01:00:38;;;;;;;8.88;1.85;;;;;;;6.26;86.70;99104.13;4968022;28;20055;-48
2021/03/12 01:03:06;;;;;;;3.45;1.30;;;;;;;6.30;85.96;99099.13;4968907;28;20239;-47
2021/03/12 01:05:33;;;;;;;4.60;1.95;;;;;;;6.22;86.43;99103.19;4968568;28;20421;-48
2021/03/12 01:08:00;;;;;;;5.85;1.77;;;;;;;6.11;86.56;99115.72;4968452;28;20047;-51
2021/03/12 01:10:27;;;;;;;4.30;2.20;;;;;;;6.16;86.89;99120.88;4968626;28;20062;-49
2021/03/12 01:12:54;;;;;;;4.20;1.42;;;;;;;6.26;86.60;99124.44;4967683;28;20047;-51
2021/03/12 01:15:24;;;;;;;4.85;1.80;;;;;;;6.27;86.18;99121.91;4967828;28;20054;-54
2021/03/12 01:17:51;;;;;;;3.53;1.50;;;;;;;6.36;85.57;99116.16;4967560;28;20051;-53
2021/03/12 01:20:22;;;;;;;5.80;1.80;;;;;;;6.47;85.33;99113.78;4967812;28;20074;-50
2021/03/12 01:22:49;;;;;;;4.90;1.42;;;;;;;6.37;85.48;99125.47;4967460;28;20055;-51
2021/03/12 01:25:19;;;;;;;7.38;1.90;;;;;;;6.45;85.10;99126.47;4967686;28;20486;-49
2021/03/12 01:27:46;;;;;;;4.10;1.48;;;;;;;6.42;85.58;99123.88;4967292;28;20066;-50
2021/03/12 01:30:16;;;;;;;4.53;1.25;;;;;;;6.39;85.35;99126.38;4960467;28;20085;-51
2021/03/12 01:32:43;;;;;;;4.53;2.13;;;;;;;6.52;84.78;99124.91;4966459;28;20054;-52
2021/03/12 01:35:10;;;;;;;4.18;1.35;;;;;;;6.46;85.45;99125.63;4966263;28;20062;-52
2021/03/12 01:37:37;;;;;;;6.03;1.90;;;;;;;6.57;84.70;99124.16;4966315;28;20043;-51
2021/03/12 01:40:06;;;;;;;6.20;2.05;;;;;;;6.66;83.70;99131.06;4966565;28;20063;-51
2021/03/12 01:42:47;;;;;;;2.65;1.35;;;;;;;6.59;84.59;99126.69;4966741;28;20053;-48
2021/03/12 01:45:42;;;;;;;4.75;1.33;;;;;;;6.46;84.94;99124.78;4963550;28;20066;-49
2021/03/12 01:48:13;;;;;;;4.18;2.17;;;;;;;6.60;84.07;99129.25;4956592;28;20042;-48
2021/03/12 01:50:41;;;;;;;5.35;1.60;;;;;;;6.55;83.85;99122.38;4965321;28;20047;-49
2021/03/12 01:53:10;;;;;;;4.90;1.38;;;;;;;6.75;83.51;99115.97;4964505;28;20059;-49
2021/03/12 01:55:37;;;;;;;3.72;1.33;;;;;;;6.49;84.42;99128.25;4965312;28;20402;-48
2021/03/12 01:58:05;;;;;;;4.57;1.75;;;;;;;6.50;84.33;99126.53;4965329;28;20058;-49
2021/03/12 02:00:32;;;;;;;5.70;1.20;;;;;;;6.71;83.38;99124.38;4965516;28;20047;-49
2021/03/12 02:03:03;;;;;;;4.45;1.30;;;;;;;6.72;83.12;99131.16;4965224;28;20066;-50
2021/03/12 02:05:29;;;;;;;6.18;1.55;;;;;;;6.80;83.17;99129.59;4964856;28;20057;-49
2021/03/12 02:07:56;;;;;;;5.32;1.55;;;;;;;6.66;83.55;99136.16;4964894;28;20058;-51
2021/03/12 02:10:25;;;;;;;7.25;1.90;;;;;;;6.67;83.48;99142.94;4965480;28;20074;-51
2021/03/12 02:13:18;;;;;;;3.47;1.50;;;;;;;6.78;83.79;99145.66;4964590;28;20540;-49
2021/03/12 02:15:54;;;;;;;1.83;1.05;;;;;;;6.86;84.12;99150.03;4964425;28;20050;-52
2021/03/12 02:18:33;;;;;;;6.18;2.00;;;;;;;6.53;88.01;99154.59;4958598;28;20043;-51
2021/03/12 02:21:23;;;;;;;4.40;2.35;;;;;;;6.30;91.38;99175.38;4964400;28;20486;-50
2021/03/12 02:23:59;;;;;;;8.30;2.30;;;;;;;6.35;93.15;99198.31;4964593;28;20047;-51
2021/03/12 02:26:38;;;;;;;6.55;2.88;;;;;;;6.01;95.24;99196.81;4964390;28;20057;-52
2021/03/12 02:29:18;;;;;;;10.35;3.88;;;;;;;5.67;98.23;99193.56;4964283;28;20059;-50
2021/03/12 02:31:46;;;;;;;9.38;4.03;;;;;;;5.90;98.56;99188.09;4964777;28;20050;-49
2021/03/12 02:34:16;;;;;;;9.40;3.35;;;;;;;5.85;99.05;99157.53;4957294;28;20046;-53
2021/03/12 02:36:48;;;;;;;5.68;3.13;;;;;;;5.75;98.36;99166.66;4964250;28;20042;-52
2021/03/12 02:39:18;;;;;;;3.67;3.03;;;;;;;5.68;97.37;99163.94;4957946;28;20050;-50
2021/03/12 02:41:48;;;;;;;7.43;3.20;;;;;;;5.81;97.74;99171.84;4964142;28;20060;-49
2021/03/12 02:44:16;;;;;;;5.57;2.92;;;;;;;5.73;97.91;99159.81;4957685;28;20193;-49
2021/03/12 02:46:45;;;;;;;8.68;2.78;;;;;;;5.65;97.43;99159.69;4963932;28;20061;-53
2021/03/12 02:49:12;;;;;;;3.38;2.10;;;;;;;5.69;95.85;99160.59;4971015;28;20050;-53
2021/03/12 02:51:39;;;;;;;6.80;2.30;;;;;;;5.48;97.72;99164.38;4963934;28;20065;-48
2021/03/12 02:54:06;;;;;;;6.60;1.90;;;;;;;5.52;97.21;99172.94;4963007;28;20050;-54
2021/03/12 02:56:34;;;;;;;7.18;1.88;;;;;;;5.42;97.24;99173.56;4963888;28;20046;-49
2021/03/12 02:59:02;;;;;;;5.13;1.73;;;;;;;5.36;96.18;99180.22;4964058;28;20679;-52
2021/03/12 03:01:30;;;;;;;1.80;1.27;;;;;;;5.34;97.02;99189.47;4963996;28;20133;-52
2021/03/12 03:03:58;;;;;;;2.40;1.20;;;;;;;5.10;97.99;99199.94;4963955;28;20158;-51
2021/03/12 03:06:26;;;;;;;3.05;1.20;;;;;;;5.18;97.24;99202.66;4963594;28;20050;-51
2021/03/12 03:08:53;;;;;;;4.43;1.50;;;;;;;5.16;96.91;99204.28;4964089;28;20713;-50
2021/03/12 03:11:21;;;;;;;4.13;1.20;;;;;;;5.13;97.43;99210.94;4964044;28;20062;-54
2021/03/12 03:13:57;;;;;;;2.28;0.88;;;;;;;5.05;97.59;99206.56;4963860;28;20070;-50
2021/03/12 03:16:27;;;;;;;1.90;1.15;;;;;;;5.06;97.62;99220.09;4963962;28;20081;-53
2021/03/12 03:18:56;;;;;;;2.35;1.10;;;;;;;4.99;98.28;99229.25;4963885;28;20050;-51
2021/03/12 03:21:24;;;;;;;3.15;1.52;;;;;;;4.90;98.31;99221.44;4964144;28;20038;-54
2021/03/12 03:23:51;;;;;;;3.60;1.38;;;;;;;4.82;99.22;99225.44;4964158;28;20102;-52
2021/03/12 03:26:17;;;;;;;3.50;1.30;;;;;;;4.98;98.20;99222.44;4968082;28;20587;-55
2021/03/12 03:28:44;;;;;;;3.22;1.30;;;;;;;5.01;96.68;99230.16;4968223;28;20047;-48
2021/03/12 03:31:10;;;;;;;1.65;1.02;;;;;;;5.02;97.09;99228.47;4968031;28;20050;-55
2021/03/12 03:33:37;;;;;;;3.17;1.17;;;;;;;5.10;96.65;99221.91;4968165;28;20051;-53
2021/03/12 03:36:04;;;;;;;5.80;1.25;;;;;;;5.16;96.37;99231.34;4967576;28;20518;-55
2021/03/12 03:38:31;;;;;;;7.30;1.50;;;;;;;5.17;96.41;99222.88;4968010;28;20070;-52
2021/03/12 03:41:03;;;;;;;1.75;1.35;;;;;;;5.28;96.36;99227.41;4967756;28;20051;-48
2021/03/12 03:43:32;;;;;;;4.45;1.58;;;;;;;5.28;96.14;99231.63;4967885;28;20057;-52
2021/03/12 03:46:03;;;;;;;7.50;1.70;;;;;;;5.24;96.47;99240.84;4966927;28;20587;-50
2021/03/12 03:48:32;;;;;;;1.90;1.25;;;;;;;5.11;96.56;99239.69;4967624;28;20061;-55
2021/03/12 03:51:00;;;;;;;4.78;2.28;;;;;;;5.13;97.07;99242.28;4967785;28;20046;-53
2021/03/12 03:53:31;;;;;;;2.83;1.55;;;;;;;5.32;96.08;99246.97;4967824;28;20057;-53
2021/03/12 03:55:59;;;;;;;3.28;1.80;;;;;;;5.14;96.91;99246.53;4967405;28;20109;-56
2021/03/12 03:58:28;;;;;;;4.03;1.95;;;;;;;5.13;96.87;99254.97;4967566;28;20046;-54
2021/03/12 04:00:55;;;;;;;4.20;1.73;;;;;;;5.20;96.76;99245.81;4967713;28;20169;-57
2021/03/12 04:03:23;;;;;;;5.38;2.40;;;;;;;5.11;96.42;99248.97;4967749;28;20050;-53
2021/03/12 04:05:53;;;;;;;5.57;2.17;;;;;;;5.25;96.12;99256.91;4967408;28;20107;-52
2021/03/12 04:08:20;;;;;;;5.60;2.30;;;;;;;5.02;96.95;99262.28;4967429;28;20421;-48
2021/03/12 04:10:48;;;;;;;4.57;2.20;;;;;;;5.23;96.00;99272.13;4967716;28;20109;-51
2021/03/12 04:13:15;;;;;;;3.47;2.00;;;;;;;5.27;96.51;99267.94;4960994;28;20042;-51
2021/03/12 04:15:41;;;;;;;2.72;2.15;;;;;;;5.33;95.83;99274.06;4967350;28;20050;-49
2021/03/12 04:18:09;;;;;;;3.00;2.15;;;;;;;5.36;95.88;99283.41;4967183;28;20150;-49
2021/03/12 04:20:36;;;;;;;5.93;2.40;;;;;;;5.29;95.89;99284.09;4967689;28;20054;-49
2021/03/12 04:23:03;;;;;;;3.50;2.03;;;;;;;5.34;94.91;99288.44;4967415;28;20505;-50
2021/03/12 04:25:32;;;;;;;7.00;2.47;;;;;;;5.23;95.06;99287.34;4967176;28;20039;-54
2021/03/12 04:28:00;;;;;;;6.05;2.72;;;;;;;5.38;95.17;99293.59;4967498;28;20076;-55
2021/03/12 04:30:27;;;;;;;4.00;2.03;;;;;;;5.22;95.37;99305.06;4967808;28;20043;-47
2021/03/12 04:32:54;;;;;;;4.25;2.55;;;;;;;5.34;94.93;99302.81;4967964;28;20778;-51
2021/03/12 04:35:21;;;;;;;5.13;2.03;;;;;;;5.27;94.09;99306.00;4968243;28;20166;-52
2021/03/12 04:37:48;;;;;;;5.45;2.03;;;;;;;5.33;93.25;99317.19;4968897;28;20049;-47
2021/03/12 04:40:15;;;;;;;2.67;1.73;;;;;;;5.40;93.57;99324.94;4961450;28;20047;-48
2021/03/12 04:42:44;;;;;;;3.85;1.80;;;;;;;5.49;93.08;99328.56;4968369;28;20146;-52
2021/03/12 04:45:12;;;;;;;2.75;1.73;;;;;;;5.44;93.23;99334.34;4968668;28;20050;-50
2021/03/12 04:47:39;;;;;;;6.60;1.85;;;;;;;5.49;93.61;99340.41;4968285;28;22235;-52
2021/03/12 04:50:09;;;;;;;9.50;2.17;;;;;;;5.48;93.12;99342.09;4967628;28;20105;-50
2021/03/12 04:52:38;;;;;;;5.45;2.20;;;;;;;5.42;93.37;99341.94;4968128;28;20070;-47
2021/03/12 04:55:06;;;;;;;4.32;1.75;;;;;;;5.50;93.42;99348.06;4965279;28;20066;-50
2021/03/12 04:57:35;;;;;;;6.18;2.08;;;;;;;5.39;93.54;99349.47;4968272;28;20039;-51
2021/03/12 05:00:05;;;;;;;2.63;1.80;;;;;;;5.47;93.61;99348.00;4967954;28;20058;-50
2021/03/12 05:02:33;;;;;;;7.50;2.70;;;;;;;5.39;93.68;99358.78;4968250;28;20047;-49
2021/03/12 05:05:01;;;;;;;4.88;2.05;;;;;;;5.38;93.90;99364.69;4968076;28;20100;-50
2021/03/12 05:07:28;;;;;;;4.53;2.53;;;;;;;5.27;93.36;99356.78;4966525;28;20057;-49
2021/03/12 05:09:54;;;;;;;4.18;2.55;;;;;;;5.17;93.96;99355.69;4967231;28;20754;-51
2021/03/12 05:12:21;;;;;;;3.00;1.88;;;;;;;5.09;94.21;99360.56;4967198;28;20046;-48
2021/03/12 05:14:47;;;;;;;3.50;1.75;;;;;;;5.00;93.95;99357.81;4967733;28;20043;-48
2021/03/12 05:17:14;;;;;;;2.65;1.90;;;;;;;5.05;93.15;99371.47;4960743;28;20057;-49
2021/03/12 05:19:41;;;;;;;7.32;2.08;;;;;;;4.94;93.88;99370.31;4967481;28;20054;-53
2021/03/12 05:22:08;;;;;;;2.78;2.00;;;;;;;4.97;94.88;99370.38;4967357;28;20074;-51
2021/03/12 05:24:34;;;;;;;4.07;2.20;;;;;;;4.90;94.72;99380.31;4967320;28;20085;-50
2021/03/12 05:27:01;;;;;;;2.00;1.70;;;;;;;4.89;94.37;99386.22;4967393;28;20059;-51
2021/03/12 05:29:27;;;;;;;2.97;2.67;;;;;;;4.83;95.41;99395.38;4967708;28;20061;-54
2021/03/12 05:31:54;;;;;;;4.47;2.70;;;;;;;4.77;95.59;99390.16;4967706;28;20057;-52
2021/03/12 05:34:20;;;;;;;3.97;2.58;;;;;;;4.79;95.84;99395.25;4967369;28;20081;-53
2021/03/12 05:36:47;;;;;;;2.28;2.08;;;;;;;4.69;96.12;99395.81;4967181;28;20050;-53
2021/03/12 05:39:14;;;;;;;6.20;3.22;;;;;;;4.71;96.91;99399.25;4960316;28;20046;-51
2021/03/12 05:41:41;;;;;;;3.75;2.45;;;;;;;4.74;95.61;99409.47;4967042;28;20525;-49
2021/03/12 05:44:07;;;;;;;5.15;2.60;;;;;;;4.67;95.81;99410.09;4966229;28;20047;-51
2021/03/12 05:46:34;;;;;;;7.47;2.92;;;;;;;4.73;96.31;99425.53;4965952;28;20055;-50
2021/03/12 05:49:02;;;;;;;6.78;3.00;;;;;;;4.71;97.27;99433.06;4965985;28;20149;-52
2021/03/12 05:51:33;;;;;;;3.45;2.58;;;;;;;4.74;98.17;99433.16;4966176;28;20464;-50
2021/03/12 05:54:01;;;;;;;4.90;2.95;;;;;;;4.75;98.74;99437.41;4966261;28;20050;-53
2021/03/12 05:56:28;;;;;;;5.57;3.58;;;;;;;4.76;98.65;99446.75;4962017;28;20043;-52
2021/03/12 05:58:57;;;;;;;4.72;3.05;;;;;;;4.74;98.70;99455.97;4958707;28;20039;-53
2021/03/12 06:01:23;;;;;;;4.97;3.05;;;;;;;4.71;99.01;99462.63;4959444;28;20485;-51
2021/03/12 06:03:50;;;;;;;8.35;2.20;;;;;;;4.59;98.78;99466.53;4958147;28;20061;-52
2021/03/12 06:06:17;;;;;;;4.15;2.45;;;;;;;4.70;97.74;99469.38;4960383;28;20051;-50
2021/03/12 06:08:43;;;;;;;3.92;2.70;;;;;;;4.78;98.51;99475.53;4957307;28;20058;-49
2021/03/12 06:11:10;;;;;;;3.20;2.08;;;;;;;4.79;97.89;99463.72;4960029;28;20513;-54
2021/03/12 06:13:54;;;;;;;4.47;2.78;;;;;;;4.76;97.78;99466.16;4957177;28;20046;-55
2021/03/12 06:16:26;;;;;;;5.18;2.00;;;;;;;4.80;97.02;99484.03;4958841;28;20038;-51
2021/03/12 06:19:29;;;;;;;5.15;2.58;;;;;;;4.84;96.27;99485.84;4963842;28;20050;-57
2021/03/12 06:22:05;;;;;;;3.65;1.90;;;;;;;4.87;95.64;99492.72;4884486;29;20055;-52
2021/03/12 06:24:34;;;;;;;3.33;2.10;;;;;;;4.87;96.00;99495.25;4955983;28;20050;-50
2021/03/12 06:27:01;;;;;;;3.45;2.30;;;;;;;4.77;95.42;99506.78;4966045;28;20105;-56
2021/03/12 06:29:45;;;;;;;3.40;2.13;;;;;;;4.71;95.99;99514.19;4965779;28;20062;-52
2021/03/12 06:32:37;;;;;;;2.35;2.00;;;;;;;4.59;95.63;99519.78;4965954;28;20046;-52
2021/03/12 06:35:05;;;;;;;3.35;2.05;;;;;;;4.65;95.69;99523.31;4962486;28;20146;-51
2021/03/12 06:37:32;;;;;;;2.30;2.08;;;;;;;4.74;95.26;99521.91;4963892;28;20051;-49
2021/03/12 06:40:10;;;;;;;5.75;2.10;;;;;;;4.65;95.49;99528.38;4963310;28;20057;-48
2021/03/12 06:42:37;;;;;;;2.75;2.10;;;;;;;4.76;94.60;99532.97;4964383;28;20053;-47
2021/03/12 06:45:04;;;;;;;3.58;2.42;;;;;;;4.74;94.37;99552.34;4964535;28;20053;-47
2021/03/12 06:47:32;;;;;;;2.55;2.33;;;;;;;4.60;95.31;99546.84;4964283;28;20051;-47
2021/03/12 06:49:59;;;;;;;3.10;2.47;;;;;;;4.78;94.37;99546.53;4964642;28;20130;-49
2021/03/12 06:52:33;;;;;;;4.03;2.63;;;;;;;4.92;93.77;99551.19;4965204;28;20049;-48
2021/03/12 06:55:00;;;;;;;4.43;2.40;;;;;;;4.80;94.99;99555.03;4964934;28;20039;-51
2021/03/12 06:57:26;;;;;;;3.70;2.65;;;;;;;5.19;93.87;99564.66;4965202;28;20043;-46
2021/03/12 07:00:05;;;;;;;4.53;2.33;;;;;;;5.41;92.47;99567.81;4960994;28;20055;-48
2021/03/12 07:02:35;;;;;;;3.45;2.20;;;;;;;5.66;90.59;99564.28;4965345;28;20480;-45
2021/03/12 07:05:07;;;;;;;5.05;2.58;;;;;;;5.62;90.69;99565.88;4964682;28;20054;-47
2021/03/12 07:07:44;;;;;;;7.70;2.88;;;;;;;5.54;91.59;99587.63;4965825;28;20517;-44
2021/03/12 07:10:11;;;;;;;5.60;2.95;;;;;;;5.52;91.57;99592.69;4963820;28;20054;-47
2021/03/12 07:12:47;;;;;;;4.28;2.88;;;;;;;5.22;91.85;99584.19;4964761;28;20047;-45
2021/03/12 07:15:14;;;;;;;4.50;2.92;;;;;;;5.18;93.68;99597.63;4958743;28;20043;-47
2021/03/12 07:17:41;;;;;;;4.68;3.03;;;;;;;5.39;92.53;99610.06;4965221;28;20054;-47
2021/03/12 07:20:10;;;;;;;6.05;3.45;;;;;;;5.45;92.12;99607.69;4965695;28;20054;-43
2021/03/12 07:22:38;;;;;;;7.30;3.35;;;;;;;5.67;90.96;99604.09;4965388;28;20066;-45
2021/03/12 07:25:09;;;;;;;4.65;3.50;;;;;;;5.98;90.63;99618.53;4965052;28;20516;-45
2021/03/12 07:27:40;;;;;;;4.15;2.92;;;;;;;5.83;90.08;99614.72;4965457;28;20077;-42
2021/03/12 07:30:10;;;;;;;4.40;3.60;;;;;;;6.05;89.50;99625.47;4964858;28;20051;-45
2021/03/12 07:32:38;;;;;;;7.07;3.38;;;;;;;6.25;88.21;99616.69;4965959;28;20046;-46
2021/03/12 07:35:06;;;;;;;8.10;4.20;;;;;;;6.15;88.21;99618.94;4965456;28;20062;-45
2021/03/12 07:37:35;;;;;;;4.80;3.38;;;;;;;6.52;87.05;99629.25;4964926;28;20051;-45
2021/03/12 07:40:05;;;;;;;5.05;3.13;;;;;;;6.25;87.31;99628.56;4961598;28;20432;-45
2021/03/12 07:42:33;;;;;;;4.43;2.90;;;;;;;6.24;86.76;99635.31;4958152;28;20058;-48
2021/03/12 07:45:00;;;;;;;4.28;3.45;;;;;;;6.20;88.52;99647.91;4960593;28;20043;-45
2021/03/12 07:47:28;;;;;;;5.88;2.75;;;;;;;6.14;88.19;99646.03;4940993;28;20047;-47
2021/03/12 07:49:55;;;;;;;5.72;3.55;;;;;;;6.01;89.19;99651.59;4960171;28;20138;-44
2021/03/12 07:52:50;;;;;;;5.60;3.50;;;;;;;6.16;87.97;99661.34;4957733;28;20077;-44
2021/03/12 07:55:35;;;;;;;4.60;3.25;;;;;;;6.47;86.93;99663.88;4948523;28;20307;-44
2021/03/12 07:58:10;;;;;;;3.55;2.53;;;;;;;6.72;85.29;99657.72;4960473;28;20047;-42
2021/03/12 08:00:51;;;;;;;5.00;3.38;;;;;;;6.58;85.43;99654.81;4960839;28;20044;-42
2021/03/12 08:03:40;;;;;;;5.60;3.00;;;;;;;6.64;86.46;99660.06;4960644;28;20051;-43
2021/03/12 08:06:21;;;;;;;5.90;3.30;;;;;;;7.11;83.90;99665.41;4962875;28;20602;-47
2021/03/12 08:08:49;;;;;;;5.47;3.00;;;;;;;7.44;82.86;99669.56;4958371;28;20524;-42
2021/03/12 08:11:19;;;;;;;3.97;2.85;;;;;;;7.56;81.90;99684.22;4958591;28;20057;-41
2021/03/12 08:13:46;;;;;;;4.85;2.83;;;;;;;7.66;82.68;99683.59;4961177;28;20062;-45
2021/03/12 08:16:13;;;;;;;6.10;3.00;;;;;;;7.46;82.90;99688.25;4960760;28;20097;-43
2021/03/12 08:18:40;;;;;;;5.28;2.80;;;;;;;6.99;82.96;99685.50;4961327;28;20059;-44
2021/03/12 08:21:29;;;;;;;5.32;3.70;;;;;;;7.13;83.68;99686.69;4962553;28;20159;-44
2021/03/12 08:23:58;;;;;;;5.43;3.38;;;;;;;7.14;83.52;99685.00;4950792;28;20436;-42
2021/03/12 08:26:51;;;;;;;3.75;3.05;;;;;;;6.89;83.17;99681.03;4962023;28;20050;-41
2021/03/12 08:29:30;;;;;;;4.13;3.30;;;;;;;7.22;82.37;99693.69;4962485;28;20042;-46
2021/03/12 08:31:57;;;;;;;4.82;3.05;;;;;;;7.12;81.58;99701.94;4961630;28;20053;-47
2021/03/12 08:34:40;;;;;;;9.20;3.10;;;;;;;7.12;81.08;99699.38;4960683;28;20716;-44
2021/03/12 08:37:32;;;;;;;6.20;3.33;;;;;;;6.84;82.34;99705.47;4962504;28;20050;-44
2021/03/12 08:40:13;;;;;;;7.60;3.47;;;;;;;6.79;83.62;99714.66;4962983;28;20050;-41
2021/03/12 08:43:04;;;;;;;3.70;3.22;;;;;;;7.02;82.91;99707.59;4961219;28;20137;-46
2021/03/12 08:45:49;;;;;;;5.93;3.75;;;;;;;6.86;83.11;99703.84;4958891;28;20062;-42
2021/03/12 08:48:29;;;;;;;10.10;4.95;;;;;;;7.32;83.10;99715.13;4960744;28;20936;-46
2021/03/12 08:50:56;;;;;;;;;;;;;;;7.55;79.60;99715.63;4962413;28;20121;-48
2021/03/12 08:53:23;;;;;;;;;;;;;;;7.56;80.15;99720.75;4961163;28;19933;-44
2021/03/12 08:55:52;;;;;;;6.50;5.80;;;;;;;7.58;80.10;99718.22;4961431;28;20422;-47
2021/03/12 08:58:29;;;;;;;5.88;2.95;;;;;;;7.48;78.39;99719.72;4961157;28;20043;-43
2021/03/12 09:00:58;;;;;;;4.82;3.17;;;;;;;7.40;79.20;99719.56;4960148;28;20051;-47
2021/03/12 09:03:30;;;;;;;6.60;3.55;;;;;;;7.23;78.46;99712.34;4959629;28;20061;-45
2021/03/12 09:06:08;;;;;;;6.72;3.80;;;;;;;7.35;78.35;99723.69;4961503;28;20052;-46
2021/03/12 09:08:37;;;;;;;5.63;2.85;;;;;;;7.18;77.97;99711.38;4958225;28;20057;-45
2021/03/12 09:11:10;;;;;;;5.97;3.85;;;;;;;7.19;77.96;99713.97;4959486;28;20513;-42
2021/03/12 09:13:38;;;;;;;3.67;2.83;;;;;;;7.18;77.50;99734.31;4955987;28;20107;-43
2021/03/12 09:16:06;;;;;;;5.22;4.40;;;;;;;7.05;79.68;99718.72;4959489;28;20074;-48
2021/03/12 09:18:37;;;;;;;5.50;4.20;;;;;;;7.14;78.85;99723.19;4957178;28;20610;-41
2021/03/12 09:21:13;;;;;;;6.18;4.10;;;;;;;7.23;80.14;99727.63;4957705;28;20058;-43
2021/03/12 09:23:42;;;;;;;7.22;4.30;;;;;;;7.34;78.81;99742.31;4956687;28;20047;-41
2021/03/12 09:26:11;;;;;;;6.47;4.53;;;;;;;7.21;78.34;99747.09;4957572;28;20053;-46
2021/03/12 09:28:39;;;;;;;4.45;3.45;;;;;;;7.21;78.25;99745.44;4960205;28;20051;-48
2021/03/12 09:31:07;;;;;;;6.13;3.40;;;;;;;7.11;77.43;99739.22;4959418;28;20058;-46
2021/03/12 09:33:52;;;;;;;7.20;4.43;;;;;;;6.98;79.27;99741.44;4956953;28;20806;-48
2021/03/12 09:36:36;;;;;;;6.93;3.83;;;;;;;7.16;78.14;99744.44;4958354;28;20038;-47
2021/03/12 09:39:07;;;;;;;5.45;3.65;;;;;;;7.14;78.49;99743.53;4960664;28;20166;-47
2021/03/12 09:41:39;;;;;;;6.43;3.75;;;;;;;7.18;77.16;99755.53;4958707;28;20162;-45
2021/03/12 09:44:10;;;;;;;6.22;3.75;;;;;;;7.27;78.69;99763.38;4963339;28;20054;-41
2021/03/12 09:46:46;;;;;;;;;;;;;;;7.64;76.33;99764.25;5029821;23;20046;-47
2021/03/12 09:49:37;;;;;;;5.05;3.28;;;;;;;8.10;75.17;99767.78;4978587;28;19936;-42
2021/03/12 09:52:16;;;;;;;5.18;3.53;;;;;;;8.37;73.83;99767.50;4979626;28;20132;-42
2021/03/12 09:54:45;;;;;;;8.75;4.38;;;;;;;8.04;74.34;99757.44;4976348;28;20047;-41
2021/03/12 09:57:17;;;;;;;6.45;3.17;;;;;;;8.60;71.31;99775.59;4959888;28;20140;-44
2021/03/12 09:59:50;;;;;;;3.75;3.17;;;;;;;8.89;70.75;99776.13;4957948;28;20082;-51
2021/03/12 10:02:19;;;;;;;4.72;3.47;;;;;;;9.24;70.61;99766.47;4958986;28;20050;-44
2021/03/12 10:04:59;;;;;;;3.35;2.45;;;;;;;9.57;68.09;99783.22;4959645;28;20047;-43
2021/03/12 10:07:43;;;;;;;5.05;3.22;;;;;;;9.35;67.33;99779.44;4958991;28;20051;-46
2021/03/12 10:10:23;;;;;;;7.68;3.63;;;;;;;9.75;64.45;99786.00;4960177;28;20141;-47
2021/03/12 10:12:52;;;;;;;7.07;2.58;;;;;;;9.50;64.36;99789.03;4957550;28;20138;-48
2021/03/12 10:15:36;;;;;;;4.53;2.58;;;;;;;9.48;62.87;99789.03;4955742;28;20611;-45
2021/03/12 10:18:04;;;;;;;7.88;2.65;;;;;;;9.35;63.77;99782.00;4958421;28;20497;-48
2021/03/12 10:20:34;;;;;;;3.78;2.30;;;;;;;9.13;62.93;99789.31;4957948;28;20134;-49
2021/03/12 10:23:10;;;;;;;4.55;2.72;;;;;;;8.85;65.60;99787.97;4960219;28;20077;-46
2021/03/12 10:25:39;;;;;;;4.65;2.88;;;;;;;8.97;65.04;99794.09;4943760;28;20043;-47
2021/03/12 10:28:09;;;;;;;6.80;2.88;;;;;;;8.68;64.62;99787.66;4960000;28;20149;-45
2021/03/12 10:30:43;;;;;;;2.78;2.50;;;;;;;8.85;64.54;99782.88;4958462;28;20410;-45
2021/03/12 10:33:12;;;;;;;6.55;2.70;;;;;;;8.81;61.66;99788.75;4959696;28;20053;-47
2021/03/12 10:35:45;;;;;;;6.95;2.33;;;;;;;9.11;62.52;99792.69;4956786;28;20051;-47
2021/03/12 10:38:15;;;;;;;3.42;1.85;;;;;;;8.99;61.22;99785.66;4958519;28;20051;-47
2021/03/12 10:40:42;;;;;;;6.07;2.75;;;;;;;9.00;62.89;99791.63;4960982;28;20555;-47
2021/03/12 10:43:24;;;;;;;4.72;2.13;;;;;;;8.71;64.02;99801.31;4959594;28;20093;-46
2021/03/12 10:45:53;;;;;;;3.67;3.03;;;;;;;8.25;67.29;99798.69;4958034;28;20039;-48
2021/03/12 10:48:25;;;;;;;7.25;3.13;;;;;;;8.57;65.73;99804.47;4958830;28;20508;-49
2021/03/12 10:51:00;;;;;;;5.07;2.85;;;;;;;8.89;65.95;99799.09;4958365;28;20427;-48
2021/03/12 10:53:27;;;;;;;5.28;2.67;;;;;;;9.99;61.80;99805.09;4957500;28;20070;-45
2021/03/12 10:56:02;;;;;;;4.90;2.97;;;;;;;11.11;58.62;99807.28;4959892;28;20524;-50
2021/03/12 10:58:31;;;;;;;3.53;2.38;;;;;;;12.97;50.02;99798.03;4956428;28;20509;-45
2021/03/12 11:01:10;;;;;;;5.35;2.85;;;;;;;12.73;51.68;99798.00;4958689;28;20051;-46
2021/03/12 11:03:40;;;;;;;4.10;2.42;;;;;;;12.31;51.09;99802.13;4965219;28;20058;-48
2021/03/12 11:06:07;;;;;;;3.83;2.40;;;;;;;11.02;53.30;99794.38;4964297;28;20050;-53
2021/03/12 11:08:35;;;;;;;4.13;2.30;;;;;;;11.31;53.29;99792.06;4961550;28;20046;-50
2021/03/12 11:11:05;;;;;;;6.57;2.95;;;;;;;12.82;49.64;99800.59;4960427;28;20849;-48
2021/03/12 11:13:33;;;;;;;4.43;2.80;;;;;;;14.50;46.06;99817.59;4957187;28;20721;-48
2021/03/12 11:16:00;;;;;;;2.75;2.45;;;;;;;15.33;44.00;99809.38;4959172;28;20134;-50
2021/03/12 11:18:29;;;;;;;4.10;2.65;;;;;;;15.57;42.21;99804.00;4958435;28;20042;-48
2021/03/12 11:21:00;;;;;;;5.55;3.42;;;;;;;13.98;45.75;99797.16;4958798;28;20060;-49
2021/03/12 11:23:28;;;;;;;5.15;3.60;;;;;;;13.26;47.90;99804.94;4958211;28;20057;-48
2021/03/12 11:25:55;;;;;;;6.30;3.03;;;;;;;11.92;50.10;99784.81;4958292;28;20048;-48
2021/03/12 11:28:24;;;;;;;5.95;3.40;;;;;;;11.38;52.67;99799.81;4958180;28;20069;-49
2021/03/12 11:30:50;;;;;;;5.90;3.75;;;;;;;10.59;56.03;99794.81;4958500;28;20047;-51
2021/03/12 11:33:17;;;;;;;6.90;3.90;;;;;;;10.23;55.76;99795.19;4961434;28;20051;-48
2021/03/12 11:35:44;;;;;;;7.43;3.70;;;;;;;10.36;55.98;99788.56;4957020;28;20135;-48
2021/03/12 11:38:10;;;;;;;5.00;3.78;;;;;;;10.11;57.09;99800.13;4960081;28;20109;-51
2021/03/12 11:40:38;;;;;;;6.70;4.60;;;;;;;9.72;59.55;99803.88;4957332;28;20124;-50
2021/03/12 11:43:06;;;;;;;6.75;4.05;;;;;;;10.08;59.92;99803.53;4959098;28;20050;-49
2021/03/12 11:45:34;;;;;;;5.45;4.28;;;;;;;11.81;53.70;99800.13;4958611;28;20058;-50
2021/03/12 11:48:06;;;;;;;5.47;4.30;;;;;;;13.22;51.18;99811.81;4963201;28;20053;-48
2021/03/12 11:50:36;;;;;;;6.30;4.00;;;;;;;13.18;49.28;99804.06;4961156;28;20417;-50
2021/03/12 11:53:15;;;;;;;5.20;3.22;;;;;;;13.45;48.63;99804.13;4963077;28;20100;-47
2021/03/12 11:55:43;;;;;;;8.23;3.33;;;;;;;14.41;44.85;99803.00;4960182;28;20131;-48
2021/03/12 11:58:12;;;;;;;5.18;4.00;;;;;;;13.38;46.51;99802.38;4964938;28;20053;-54